createdAt,value
2018-12-20T00:00:52.361Z,9.00
2018-12-20T00:03:20.736Z,8.90
2018-12-20T00:05:58.070Z,8.80
2018-12-20T00:08:26.945Z,8.90
2018-12-20T00:10:55.658Z,9.00
2018-12-20T00:13:24.843Z,9.00
2018-12-20T00:15:54.165Z,8.90
2018-12-20T00:18:24.653Z,8.70
2018-12-20T00:20:53.052Z,8.80
2018-12-20T00:23:21.803Z,8.80
2018-12-20T00:25:51.393Z,8.70
2018-12-20T00:28:20.229Z,8.90
2018-12-20T00:30:48.621Z,9.00
2018-12-20T00:33:17.219Z,8.90
2018-12-20T00:35:45.676Z,8.80
2018-12-20T00:38:14.013Z,8.80
2018-12-20T00:40:42.285Z,8.80
2018-12-20T00:43:10.624Z,8.90
2018-12-20T00:45:38.873Z,8.90
2018-12-20T00:48:07.156Z,8.90
2018-12-20T00:50:35.380Z,8.90
2018-12-20T00:53:03.753Z,9.00
2018-12-20T00:55:32.547Z,9.10
2018-12-20T00:58:00.807Z,9.20
2018-12-20T01:00:30.917Z,9.00
2018-12-20T01:02:59.258Z,9.10
2018-12-20T01:05:27.506Z,9.00
2018-12-20T01:07:55.765Z,9.00
2018-12-20T01:10:24.083Z,9.00
2018-12-20T01:12:52.397Z,9.20
2018-12-20T01:15:20.720Z,9.20
2018-12-20T01:17:49.255Z,9.10
2018-12-20T01:20:17.619Z,9.10
2018-12-20T01:22:45.865Z,9.40
2018-12-20T01:25:14.076Z,9.30
2018-12-20T01:27:42.308Z,9.20
2018-12-20T01:30:10.763Z,9.20
2018-12-20T01:32:39.047Z,9.10
2018-12-20T01:35:07.430Z,9.20
2018-12-20T01:37:35.630Z,9.20
2018-12-20T01:40:04.553Z,9.30
2018-12-20T01:42:32.840Z,9.30
2018-12-20T01:45:01.265Z,9.30
2018-12-20T01:47:29.906Z,9.30
2018-12-20T01:49:58.300Z,9.40
2018-12-20T01:52:26.658Z,9.30
2018-12-20T01:54:55.044Z,9.40
2018-12-20T01:57:23.563Z,9.40
2018-12-20T01:59:51.868Z,9.50
2018-12-20T02:02:20.196Z,9.40
2018-12-20T02:04:48.588Z,9.50
2018-12-20T02:07:17.026Z,9.60
2018-12-20T02:09:45.287Z,9.40
2018-12-20T02:12:13.652Z,9.40
2018-12-20T02:14:42.260Z,9.50
2018-12-20T02:17:10.604Z,9.40
2018-12-20T02:19:38.970Z,9.40
2018-12-20T02:22:07.524Z,9.40
2018-12-20T02:24:35.981Z,9.40
2018-12-20T02:27:10.723Z,9.40
2018-12-20T02:29:40.895Z,9.40
2018-12-20T02:32:10.411Z,9.40
2018-12-20T02:34:41.432Z,9.40
2018-12-20T02:37:17.179Z,9.30
2018-12-20T02:39:49.088Z,9.40
2018-12-20T02:42:30.390Z,9.60
2018-12-20T02:44:59.830Z,9.50
2018-12-20T02:47:30.124Z,9.40
2018-12-20T02:49:59.433Z,9.50
2018-12-20T02:52:36.305Z,9.40
2018-12-20T02:55:05.483Z,9.40
2018-12-20T02:57:40.790Z,9.50
2018-12-20T03:00:09.813Z,9.50
2018-12-20T03:02:39.775Z,9.60
2018-12-20T03:05:16.157Z,9.60
2018-12-20T03:07:45.098Z,9.50
2018-12-20T03:12:56.684Z,9.40
2018-12-20T03:15:28.631Z,9.30
2018-12-20T03:18:04.071Z,9.30
2018-12-20T03:20:40.115Z,9.40
2018-12-20T03:23:15.668Z,9.50
2018-12-20T03:25:54.236Z,9.60
2018-12-20T03:28:26.058Z,9.60
2018-12-20T03:31:00.440Z,9.60
2018-12-20T03:33:32.341Z,9.70
2018-12-20T03:36:07.044Z,9.60
2018-12-20T03:38:36.779Z,9.60
2018-12-20T03:41:09.587Z,9.60
2018-12-20T03:43:54.491Z,9.60
2018-12-20T03:46:26.832Z,9.70
2018-12-20T03:48:56.348Z,9.80
2018-12-20T03:51:28.747Z,9.60
2018-12-20T03:53:59.935Z,9.60
2018-12-20T03:56:40.659Z,9.50
2018-12-20T03:59:13.427Z,9.70
2018-12-20T04:01:44.050Z,9.60
2018-12-20T04:04:16.715Z,9.50
2018-12-20T04:07:00.323Z,9.40
2018-12-20T04:12:08.952Z,9.60
2018-12-20T04:14:37.662Z,9.70
2018-12-20T04:17:10.491Z,9.80
2018-12-20T04:19:45.941Z,9.60
2018-12-20T04:22:15.982Z,9.60
2018-12-20T04:24:48.733Z,9.60
2018-12-20T04:27:17.381Z,9.60
2018-12-20T04:29:46.221Z,9.40
2018-12-20T04:32:15.484Z,9.40
2018-12-20T04:34:44.730Z,9.40
2018-12-20T04:37:14.887Z,9.40
2018-12-20T04:39:46.095Z,9.30
2018-12-20T04:42:19.432Z,9.50
2018-12-20T04:44:49.214Z,9.60
2018-12-20T04:47:18.550Z,9.60
2018-12-20T04:49:47.850Z,9.50
2018-12-20T04:52:17.885Z,9.50
2018-12-20T04:54:48.283Z,9.30
2018-12-20T04:57:18.949Z,9.30
2018-12-20T04:59:49.028Z,9.50
2018-12-20T05:02:25.780Z,9.30
2018-12-20T05:04:58.542Z,9.50
2018-12-20T05:07:27.297Z,9.30
2018-12-20T05:09:55.956Z,9.40
2018-12-20T05:12:28.894Z,9.40
2018-12-20T05:15:01.297Z,9.20
2018-12-20T05:17:33.645Z,9.30
2018-12-20T05:20:04.186Z,9.20
2018-12-20T05:22:33.797Z,9.20
2018-12-20T05:25:12.030Z,9.10
2018-12-20T05:28:01.301Z,9.20
2018-12-20T05:30:40.928Z,9.20
2018-12-20T05:36:29.107Z,9.10
2018-12-20T05:39:11.848Z,9.20
2018-12-20T05:41:49.733Z,9.20
2018-12-20T05:44:26.263Z,9.20
2018-12-20T05:47:03.095Z,9.30
2018-12-20T05:53:12.178Z,9.10
2018-12-20T05:55:43.925Z,8.90
2018-12-20T05:58:22.571Z,9.00
2018-12-20T06:01:10.003Z,8.90
2018-12-20T06:03:43.940Z,8.90
2018-12-20T06:06:23.375Z,8.80
2018-12-20T06:09:09.058Z,8.70
2018-12-20T06:11:56.619Z,8.80
2018-12-20T06:14:49.718Z,8.80
2018-12-20T06:17:31.600Z,8.70
2018-12-20T06:20:08.433Z,8.70
2018-12-20T06:22:41.363Z,8.70
2018-12-20T06:25:12.873Z,8.70
2018-12-20T06:27:46.841Z,8.60
2018-12-20T06:30:19.314Z,8.50
2018-12-20T06:32:51.500Z,8.40
2018-12-20T06:35:33.455Z,8.50
2018-12-20T06:38:09.020Z,8.40
2018-12-20T06:40:41.194Z,8.50
2018-12-20T06:43:12.741Z,8.50
2018-12-20T06:45:45.223Z,8.50
2018-12-20T06:48:18.449Z,8.50
2018-12-20T06:50:51.870Z,8.40
2018-12-20T06:53:25.643Z,8.20
2018-12-20T06:55:58.126Z,8.40
2018-12-20T06:58:29.572Z,8.30
2018-12-20T07:01:01.163Z,8.30
2018-12-20T07:03:33.847Z,8.40
2018-12-20T07:06:05.717Z,8.40
2018-12-20T07:08:36.318Z,8.40
2018-12-20T07:11:08.266Z,8.40
2018-12-20T07:13:48.807Z,8.40
2018-12-20T07:16:29.298Z,8.40
2018-12-20T07:18:58.652Z,8.40
2018-12-20T07:21:32.361Z,8.40
2018-12-20T07:24:07.988Z,8.40
2018-12-20T07:26:40.496Z,8.40
2018-12-20T07:29:18.798Z,8.30
2018-12-20T07:31:53.157Z,8.40
2018-12-20T07:34:23.560Z,8.60
2018-12-20T07:37:03.093Z,8.60
2018-12-20T07:40:06.272Z,8.60
2018-12-20T07:42:40.634Z,8.70
2018-12-20T07:45:27.623Z,8.70
2018-12-20T07:47:58.347Z,8.70
2018-12-20T07:50:43.099Z,8.60
2018-12-20T07:55:57.453Z,8.70
2018-12-20T07:58:33.927Z,8.80
2018-12-20T08:01:03.386Z,8.90
2018-12-20T08:03:31.879Z,9.00
2018-12-20T08:06:01.617Z,9.00
2018-12-20T08:08:34.295Z,9.00
2018-12-20T08:11:03.455Z,9.00
2018-12-20T08:13:33.858Z,9.00
2018-12-20T08:16:02.547Z,9.20
2018-12-20T08:18:38.306Z,9.00
2018-12-20T08:21:07.142Z,9.10
2018-12-20T08:23:38.329Z,9.10
2018-12-20T08:26:17.244Z,9.00
2018-12-20T08:28:55.266Z,9.00
2018-12-20T08:49:45.450Z,9.00
2018-12-20T08:52:13.922Z,9.00
2018-12-20T08:54:44.111Z,9.00
2018-12-20T08:57:17.546Z,9.20
2018-12-20T08:59:51.531Z,9.20
2018-12-20T09:02:26.124Z,9.20
2018-12-20T09:04:55.873Z,9.10
2018-12-20T09:07:25.268Z,9.20
2018-12-20T09:09:53.676Z,9.20
2018-12-20T09:12:24.253Z,9.20
2018-12-20T09:14:53.276Z,9.40
2018-12-20T09:17:21.551Z,9.40
2018-12-20T09:19:49.773Z,9.40
2018-12-20T09:22:18.127Z,9.40
2018-12-20T09:24:46.433Z,9.40
2018-12-20T09:27:14.753Z,9.40
2018-12-20T09:29:43.034Z,9.50
2018-12-20T09:32:11.262Z,9.60
2018-12-20T09:34:39.542Z,9.50
2018-12-20T09:37:15.002Z,9.70
2018-12-20T09:39:43.280Z,9.60
2018-12-20T09:42:11.517Z,9.50
2018-12-20T09:44:39.815Z,9.50
2018-12-20T09:47:13.471Z,9.40
2018-12-20T09:49:41.863Z,9.30
2018-12-20T09:52:10.110Z,9.50
2018-12-20T09:54:38.571Z,9.40
2018-12-20T09:57:06.813Z,9.50
2018-12-20T09:59:35.062Z,9.40
2018-12-20T10:02:03.418Z,9.30
2018-12-20T10:04:31.703Z,9.20
2018-12-20T10:07:00.216Z,9.10
2018-12-20T10:09:28.532Z,9.20
2018-12-20T10:11:56.768Z,9.40
2018-12-20T10:14:25.071Z,9.40
2018-12-20T10:16:53.344Z,9.30
2018-12-20T10:19:21.726Z,9.30
2018-12-20T10:21:50.009Z,9.40
2018-12-20T10:24:18.416Z,9.40
2018-12-20T10:26:46.799Z,9.40
2018-12-20T10:29:15.241Z,9.40
2018-12-20T10:31:43.509Z,9.10
2018-12-20T10:34:11.915Z,9.30
2018-12-20T10:36:40.193Z,9.50
2018-12-20T10:39:08.525Z,9.50
2018-12-20T10:41:36.762Z,9.50
2018-12-20T10:44:05.010Z,9.80
2018-12-20T10:46:33.260Z,9.50
2018-12-20T10:49:01.664Z,9.80
2018-12-20T10:51:30.006Z,9.90
2018-12-20T10:53:58.350Z,10.10
2018-12-20T10:56:26.587Z,9.80
2018-12-20T10:58:54.932Z,9.70
2018-12-20T11:01:28.749Z,10.00
2018-12-20T11:04:03.281Z,10.00
2018-12-20T11:06:37.259Z,10.20
2018-12-20T11:09:12.700Z,10.10
2018-12-20T11:11:46.346Z,10.30
2018-12-20T11:14:14.979Z,10.30
2018-12-20T11:17:16.300Z,10.20
2018-12-20T11:19:44.697Z,10.20
2018-12-20T11:22:13.131Z,10.40
2018-12-20T11:24:41.670Z,10.40
2018-12-20T11:27:10.391Z,10.10
2018-12-20T11:29:38.725Z,10.30
2018-12-20T11:32:06.990Z,10.40
2018-12-20T11:34:35.245Z,10.50
2018-12-20T11:37:03.517Z,10.50
2018-12-20T11:39:31.911Z,10.60
2018-12-20T11:42:00.178Z,10.60
2018-12-20T11:44:28.533Z,10.40
2018-12-20T11:46:56.804Z,10.60
2018-12-20T11:49:25.142Z,10.80
2018-12-20T11:51:54.377Z,10.80
2018-12-20T11:54:24.110Z,11.00
2018-12-20T11:56:52.416Z,11.20
2018-12-20T11:59:20.792Z,10.90
2018-12-20T12:01:49.203Z,10.90
2018-12-20T12:04:17.425Z,10.90
2018-12-20T12:06:45.792Z,11.00
2018-12-20T12:09:14.133Z,11.10
2018-12-20T12:11:42.449Z,10.90
2018-12-20T12:14:11.002Z,10.70
2018-12-20T12:16:39.353Z,10.60
2018-12-20T12:19:07.727Z,10.60
2018-12-20T12:21:35.969Z,11.10
2018-12-20T12:24:04.717Z,11.20
2018-12-20T12:26:33.216Z,11.10
2018-12-20T12:29:01.618Z,11.30
2018-12-20T12:31:29.896Z,11.40
2018-12-20T12:33:58.153Z,11.70
2018-12-20T12:36:26.454Z,11.40
2018-12-20T12:38:54.736Z,11.60
2018-12-20T12:41:23.004Z,11.70
2018-12-20T12:43:51.323Z,11.90
2018-12-20T12:46:19.691Z,11.80
2018-12-20T12:48:48.052Z,11.80
2018-12-20T12:51:16.432Z,11.60
2018-12-20T12:53:44.692Z,11.80
2018-12-20T12:56:12.956Z,11.80
2018-12-20T12:58:41.364Z,12.00
2018-12-20T13:01:09.721Z,11.90
2018-12-20T13:03:38.010Z,12.30
2018-12-20T13:06:06.577Z,12.20
2018-12-20T13:08:34.835Z,12.10
2018-12-20T13:11:03.282Z,12.10
2018-12-20T13:13:31.748Z,12.10
2018-12-20T13:16:00.278Z,11.90
2018-12-20T13:18:28.519Z,11.60
2018-12-20T13:20:56.871Z,11.50
2018-12-20T13:23:25.762Z,11.70
2018-12-20T13:25:54.115Z,11.60
2018-12-20T13:28:22.574Z,11.40
2018-12-20T13:30:50.826Z,11.40
2018-12-20T13:33:19.081Z,11.30
2018-12-20T13:35:47.478Z,11.40
2018-12-20T13:38:15.796Z,11.20
2018-12-20T13:40:44.075Z,10.90
2018-12-20T13:43:12.308Z,10.90
2018-12-20T13:45:40.692Z,11.00
2018-12-20T13:48:09.003Z,11.30
2018-12-20T13:50:37.265Z,11.60
2018-12-20T13:53:05.686Z,11.30
2018-12-20T13:55:34.293Z,11.30
2018-12-20T13:58:03.990Z,11.30
2018-12-20T14:00:32.541Z,11.20
2018-12-20T14:03:01.149Z,11.10
2018-12-20T14:05:29.399Z,11.20
2018-12-20T14:07:58.912Z,11.10
2018-12-20T14:10:27.616Z,11.00
2018-12-20T14:12:55.897Z,11.10
2018-12-20T14:15:24.421Z,11.00
2018-12-20T14:21:01.228Z,11.00
2018-12-20T14:23:29.485Z,11.00
2018-12-20T14:25:57.735Z,10.60
2018-12-20T14:28:37.983Z,10.80
2018-12-20T14:31:06.246Z,10.80
2018-12-20T14:33:34.520Z,10.70
2018-12-20T14:36:02.779Z,10.40
2018-12-20T14:38:31.105Z,10.30
2018-12-20T14:40:59.367Z,10.10
2018-12-20T14:43:27.684Z,10.20
2018-12-20T14:45:55.958Z,10.30
2018-12-20T14:54:27.328Z,10.00
2018-12-20T14:56:59.682Z,9.80
2018-12-20T14:59:34.328Z,9.90
2018-12-20T15:02:02.742Z,10.20
2018-12-20T15:04:31.677Z,10.10
2018-12-20T15:07:00.183Z,9.80
2018-12-20T15:09:28.710Z,10.00
2018-12-20T15:11:57.103Z,9.90
2018-12-20T15:14:25.771Z,9.80
2018-12-20T15:16:54.536Z,9.80
2018-12-20T15:19:24.367Z,9.60
2018-12-20T15:21:52.912Z,9.60
2018-12-20T15:24:21.666Z,9.70
2018-12-20T15:26:52.757Z,9.90
2018-12-20T15:29:22.436Z,10.00
2018-12-20T15:31:58.229Z,10.00
2018-12-20T15:34:27.179Z,9.90
2018-12-20T15:36:55.491Z,9.90
2018-12-20T15:39:33.516Z,9.70
2018-12-20T15:42:01.711Z,9.70
2018-12-20T15:44:29.986Z,9.90
2018-12-20T15:46:58.825Z,10.00
2018-12-20T15:49:27.150Z,9.90
2018-12-20T15:51:55.454Z,10.00
2018-12-20T15:54:23.726Z,9.80
2018-12-20T15:56:51.981Z,9.90
2018-12-20T15:59:20.198Z,9.90
2018-12-20T16:01:48.691Z,10.00
2018-12-20T16:04:17.119Z,10.10
2018-12-20T16:06:45.474Z,10.20
2018-12-20T16:09:13.750Z,10.10
2018-12-20T16:11:42.030Z,10.10
2018-12-20T16:14:10.329Z,10.10
2018-12-20T16:16:38.773Z,10.00
2018-12-20T16:19:07.089Z,10.00
2018-12-20T16:21:35.667Z,9.90
2018-12-20T16:24:04.106Z,10.10
2018-12-20T17:30:43.038Z,10.20
2018-12-20T17:36:23.886Z,10.30
2018-12-20T17:39:14.442Z,10.20
2018-12-20T17:41:49.249Z,10.20
2018-12-20T18:08:50.730Z,9.60
2018-12-20T18:14:45.348Z,9.80
2018-12-20T18:20:20.136Z,9.80
2018-12-20T18:22:56.355Z,9.90
2018-12-20T18:25:30.346Z,10.10
2018-12-20T18:28:11.422Z,9.90
2018-12-20T18:30:50.075Z,9.90
2018-12-20T18:33:24.203Z,10.00
2018-12-20T18:35:55.890Z,10.10
2018-12-20T18:38:35.929Z,10.10
2018-12-20T18:41:07.576Z,10.00
2018-12-20T18:55:54.151Z,10.00
2018-12-20T18:58:32.403Z,9.90
2018-12-20T19:01:06.538Z,9.70
2018-12-20T19:03:53.318Z,9.80
2018-12-20T19:30:53.791Z,9.40
2018-12-20T19:33:35.402Z,9.50
2018-12-20T19:42:27.933Z,9.60
2018-12-20T19:51:10.493Z,9.70
2018-12-20T19:56:52.051Z,9.60
2018-12-20T19:59:39.241Z,9.80
2018-12-20T20:02:27.153Z,9.80
2018-12-20T21:06:11.397Z,9.90
2018-12-20T21:08:41.908Z,9.90
2018-12-20T21:41:48.132Z,9.70
2018-12-20T21:50:21.686Z,9.60
2018-12-20T22:17:19.924Z,9.80
2018-12-20T22:59:26.049Z,9.80
2018-12-20T23:01:54.341Z,9.90
2018-12-20T23:04:22.901Z,9.90
2018-12-20T23:06:51.142Z,9.90
2018-12-20T23:09:19.565Z,9.90
2018-12-20T23:11:48.785Z,10.10
2018-12-20T23:14:17.556Z,10.00
2018-12-20T23:16:53.716Z,9.80
2018-12-20T23:19:16.989Z,9.90
2018-12-20T23:21:45.238Z,9.90
2018-12-20T23:24:13.472Z,9.90
2018-12-20T23:26:41.912Z,9.90
2018-12-20T23:29:10.161Z,9.80
2018-12-20T23:31:38.389Z,9.80
2018-12-20T23:34:06.742Z,9.80
2018-12-20T23:36:35.008Z,9.80
2018-12-20T23:39:04.838Z,9.90
2018-12-20T23:41:33.080Z,10.10
2018-12-20T23:44:01.333Z,9.90
2018-12-20T23:46:29.621Z,9.80
2018-12-20T23:48:58.064Z,9.60
2018-12-20T23:51:26.378Z,9.70
2018-12-20T23:53:54.667Z,9.80
2018-12-20T23:56:22.924Z,9.90
2018-12-20T23:58:51.293Z,9.90
